sensor_id;sensor_type;location;lat;lon;timestamp;pressure;altitude;pressure_sealevel;temperature;humidity
6524;BME280;3295;38.928;-77.052;2023-03-04T00:01:11;99729.03;;;7.10;100.00
6524;BME280;3295;38.928;-77.052;2023-03-04T00:03:39;99709.00;;;7.17;100.00
6524;BME280;3295;38.928;-77.052;2023-03-04T00:06:07;99686.84;;;7.12;100.00
6524;BME280;3295;38.928;-77.052;2023-03-04T00:08:35;99670.28;;;7.01;100.00
6524;BME280;3295;38.928;-77.052;2023-03-04T00:11:03;99663.34;;;6.97;100.00
6524;BME280;3295;38.928;-77.052;2023-03-04T00:13:33;99650.94;;;7.03;100.00
6524;BME280;3295;38.928;-77.052;2023-03-04T00:16:00;99643.47;;;7.06;100.00
6524;BME280;3295;38.928;-77.052;2023-03-04T00:18:28;99662.44;;;6.95;100.00
6524;BME280;3295;38.928;-77.052;2023-03-04T00:20:56;99672.69;;;6.98;100.00
6524;BME280;3295;38.928;-77.052;2023-03-04T00:23:24;99642.13;;;7.14;100.00
6524;BME280;3295;38.928;-77.052;2023-03-04T00:25:52;99633.94;;;7.20;100.00
6524;BME280;3295;38.928;-77.052;2023-03-04T00:28:20;99615.59;;;7.06;100.00
6524;BME280;3295;38.928;-77.052;2023-03-04T00:30:49;99606.00;;;7.19;100.00
6524;BME280;3295;38.928;-77.052;2023-03-04T00:33:17;99577.94;;;7.35;100.00
6524;BME280;3295;38.928;-77.052;2023-03-04T00:35:45;99561.47;;;7.25;100.00
6524;BME280;3295;38.928;-77.052;2023-03-04T00:38:13;99557.22;;;7.45;100.00
6524;BME280;3295;38.928;-77.052;2023-03-04T00:40:41;99542.81;;;7.65;100.00
6524;BME280;3295;38.928;-77.052;2023-03-04T00:43:09;99539.97;;;7.57;100.00
6524;BME280;3295;38.928;-77.052;2023-03-04T00:45:37;99563.34;;;7.71;100.00
6524;BME280;3295;38.928;-77.052;2023-03-04T00:48:06;99562.03;;;7.80;100.00
6524;BME280;3295;38.928;-77.052;2023-03-04T00:50:34;99560.00;;;7.72;100.00
6524;BME280;3295;38.928;-77.052;2023-03-04T00:53:02;99543.72;;;7.67;100.00
6524;BME280;3295;38.928;-77.052;2023-03-04T00:55:30;99530.16;;;7.66;100.00
6524;BME280;3295;38.928;-77.052;2023-03-04T00:57:58;99505.06;;;7.72;100.00
6524;BME280;3295;38.928;-77.052;2023-03-04T01:00:26;99489.56;;;7.66;100.00
6524;BME280;3295;38.928;-77.052;2023-03-04T01:02:54;99503.44;;;7.74;100.00
6524;BME280;3295;38.928;-77.052;2023-03-04T01:05:24;99460.56;;;7.82;100.00
6524;BME280;3295;38.928;-77.052;2023-03-04T01:07:52;99446.59;;;7.92;100.00
6524;BME280;3295;38.928;-77.052;2023-03-04T01:10:20;99426.78;;;7.83;100.00
6524;BME280;3295;38.928;-77.052;2023-03-04T01:12:48;99407.78;;;7.96;100.00
6524;BME280;3295;38.928;-77.052;2023-03-04T01:15:15;99389.25;;;7.74;100.00
6524;BME280;3295;38.928;-77.052;2023-03-04T01:17:43;99356.25;;;7.74;100.00
6524;BME280;3295;38.928;-77.052;2023-03-04T01:20:12;99315.13;;;7.83;100.00
6524;BME280;3295;38.928;-77.052;2023-03-04T01:22:42;99277.28;;;7.89;100.00
6524;BME280;3295;38.928;-77.052;2023-03-04T01:25:10;99270.47;;;7.88;100.00
6524;BME280;3295;38.928;-77.052;2023-03-04T01:27:38;99247.41;;;8.06;100.00
6524;BME280;3295;38.928;-77.052;2023-03-04T01:30:07;99220.28;;;8.05;100.00
6524;BME280;3295;38.928;-77.052;2023-03-04T01:32:35;99206.00;;;8.08;100.00
6524;BME280;3295;38.928;-77.052;2023-03-04T01:35:03;99207.25;;;8.21;100.00
6524;BME280;3295;38.928;-77.052;2023-03-04T01:37:31;99194.38;;;8.15;100.00
6524;BME280;3295;38.928;-77.052;2023-03-04T01:40:01;99196.75;;;8.36;100.00
6524;BME280;3295;38.928;-77.052;2023-03-04T01:42:33;99167.25;;;8.39;100.00
6524;BME280;3295;38.928;-77.052;2023-03-04T01:45:03;99149.13;;;8.55;100.00
6524;BME280;3295;38.928;-77.052;2023-03-04T01:47:32;99125.44;;;8.57;100.00
6524;BME280;3295;38.928;-77.052;2023-03-04T01:50:03;99112.53;;;8.50;100.00
6524;BME280;3295;38.928;-77.052;2023-03-04T01:52:31;99123.41;;;8.75;100.00
6524;BME280;3295;38.928;-77.052;2023-03-04T01:55:01;99131.25;;;8.81;100.00
6524;BME280;3295;38.928;-77.052;2023-03-04T01:57:34;99117.38;;;9.00;100.00
6524;BME280;3295;38.928;-77.052;2023-03-04T02:00:26;99119.78;;;8.95;100.00
6524;BME280;3295;38.928;-77.052;2023-03-04T02:02:57;99093.09;;;9.11;100.00
6524;BME280;3295;38.928;-77.052;2023-03-04T02:05:26;99111.84;;;9.14;100.00
6524;BME280;3295;38.928;-77.052;2023-03-04T02:07:56;99111.97;;;9.19;100.00
6524;BME280;3295;38.928;-77.052;2023-03-04T02:10:27;99126.28;;;9.47;100.00
6524;BME280;3295;38.928;-77.052;2023-03-04T02:12:55;99117.91;;;9.51;100.00
6524;BME280;3295;38.928;-77.052;2023-03-04T02:15:24;99100.84;;;9.47;100.00
6524;BME280;3295;38.928;-77.052;2023-03-04T02:17:53;99068.66;;;9.49;100.00
6524;BME280;3295;38.928;-77.052;2023-03-04T02:20:32;99031.84;;;9.35;100.00
6524;BME280;3295;38.928;-77.052;2023-03-04T02:23:06;99034.97;;;9.59;100.00
6524;BME280;3295;38.928;-77.052;2023-03-04T02:25:41;99017.00;;;9.51;100.00
6524;BME280;3295;38.928;-77.052;2023-03-04T02:28:14;98995.47;;;9.75;100.00
6524;BME280;3295;38.928;-77.052;2023-03-04T02:30:42;98987.88;;;9.76;100.00
6524;BME280;3295;38.928;-77.052;2023-03-04T02:33:15;98994.25;;;9.95;100.00
6524;BME280;3295;38.928;-77.052;2023-03-04T02:35:43;98991.03;;;10.04;100.00
6524;BME280;3295;38.928;-77.052;2023-03-04T02:38:12;98965.09;;;10.20;100.00
6524;BME280;3295;38.928;-77.052;2023-03-04T02:40:41;98938.88;;;10.25;100.00
6524;BME280;3295;38.928;-77.052;2023-03-04T02:43:11;98927.06;;;10.29;100.00
6524;BME280;3295;38.928;-77.052;2023-03-04T02:45:43;98948.06;;;10.59;100.00
6524;BME280;3295;38.928;-77.052;2023-03-04T02:48:12;98922.81;;;10.73;100.00
6524;BME280;3295;38.928;-77.052;2023-03-04T02:50:43;98952.91;;;10.91;100.00
6524;BME280;3295;38.928;-77.052;2023-03-04T02:53:12;98943.56;;;10.91;100.00
6524;BME280;3295;38.928;-77.052;2023-03-04T02:55:40;98899.22;;;10.85;100.00
6524;BME280;3295;38.928;-77.052;2023-03-04T02:58:08;98849.88;;;10.83;100.00
6524;BME280;3295;38.928;-77.052;2023-03-04T03:00:37;98896.22;;;11.09;100.00
6524;BME280;3295;38.928;-77.052;2023-03-04T03:03:08;98897.31;;;11.24;100.00
6524;BME280;3295;38.928;-77.052;2023-03-04T03:05:36;98852.31;;;11.28;100.00
6524;BME280;3295;38.928;-77.052;2023-03-04T03:08:05;98828.22;;;11.11;100.00
6524;BME280;3295;38.928;-77.052;2023-03-04T03:10:33;98772.09;;;11.09;100.00
6524;BME280;3295;38.928;-77.052;2023-03-04T03:13:01;98733.81;;;11.09;100.00
6524;BME280;3295;38.928;-77.052;2023-03-04T03:15:29;98776.69;;;11.34;100.00
6524;BME280;3295;38.928;-77.052;2023-03-04T03:17:57;98751.97;;;11.29;100.00
6524;BME280;3295;38.928;-77.052;2023-03-04T03:20:27;98694.53;;;10.95;100.00
6524;BME280;3295;38.928;-77.052;2023-03-04T03:22:55;98683.56;;;11.02;100.00
6524;BME280;3295;38.928;-77.052;2023-03-04T03:25:23;98674.50;;;11.25;100.00
6524;BME280;3295;38.928;-77.052;2023-03-04T03:27:51;98725.81;;;11.47;100.00
6524;BME280;3295;38.928;-77.052;2023-03-04T03:30:19;98725.13;;;11.63;100.00
6524;BME280;3295;38.928;-77.052;2023-03-04T03:32:47;98669.53;;;11.37;100.00
6524;BME280;3295;38.928;-77.052;2023-03-04T03:35:15;98660.16;;;11.32;100.00
6524;BME280;3295;38.928;-77.052;2023-03-04T03:37:45;98605.59;;;11.22;100.00
6524;BME280;3295;38.928;-77.052;2023-03-04T03:40:14;98653.63;;;11.60;100.00
6524;BME280;3295;38.928;-77.052;2023-03-04T03:42:42;98642.72;;;11.73;100.00
6524;BME280;3295;38.928;-77.052;2023-03-04T03:45:10;98598.56;;;11.83;100.00
6524;BME280;3295;38.928;-77.052;2023-03-04T03:47:39;98658.22;;;11.88;100.00
6524;BME280;3295;38.928;-77.052;2023-03-04T03:50:07;98767.31;;;12.04;100.00
6524;BME280;3295;38.928;-77.052;2023-03-04T03:52:35;98741.03;;;12.15;100.00
6524;BME280;3295;38.928;-77.052;2023-03-04T03:55:06;98751.41;;;12.28;100.00
6524;BME280;3295;38.928;-77.052;2023-03-04T03:57:34;58796.78;;;-143.16;100.00
6524;BME280;3295;38.928;-77.052;2023-03-04T04:00:02;58796.78;;;-143.16;100.00
6524;BME280;3295;38.928;-77.052;2023-03-04T04:02:30;58796.78;;;-143.16;100.00
6524;BME280;3295;38.928;-77.052;2023-03-04T04:04:57;58796.78;;;-143.16;100.00
6524;BME280;3295;38.928;-77.052;2023-03-04T04:07:25;58796.78;;;-143.16;100.00
6524;BME280;3295;38.928;-77.052;2023-03-04T04:09:53;58796.78;;;-143.16;100.00
6524;BME280;3295;38.928;-77.052;2023-03-04T04:12:23;58796.78;;;-143.16;100.00
6524;BME280;3295;38.928;-77.052;2023-03-04T04:14:51;58796.78;;;-143.16;100.00
6524;BME280;3295;38.928;-77.052;2023-03-04T04:17:19;58796.78;;;-143.16;100.00
6524;BME280;3295;38.928;-77.052;2023-03-04T04:19:46;58796.78;;;-143.16;100.00
6524;BME280;3295;38.928;-77.052;2023-03-04T04:22:16;58796.78;;;-143.16;100.00
6524;BME280;3295;38.928;-77.052;2023-03-04T04:24:44;58796.78;;;-143.16;100.00
6524;BME280;3295;38.928;-77.052;2023-03-04T04:27:12;58796.78;;;-143.16;100.00
6524;BME280;3295;38.928;-77.052;2023-03-04T04:29:42;58796.78;;;-143.16;100.00
6524;BME280;3295;38.928;-77.052;2023-03-04T04:32:10;58796.78;;;-143.16;100.00
6524;BME280;3295;38.928;-77.052;2023-03-04T04:34:39;58796.78;;;-143.16;100.00
6524;BME280;3295;38.928;-77.052;2023-03-04T04:37:07;58796.78;;;-143.16;100.00
6524;BME280;3295;38.928;-77.052;2023-03-04T04:39:35;58796.78;;;-143.16;100.00
6524;BME280;3295;38.928;-77.052;2023-03-04T04:42:03;58796.78;;;-143.16;100.00
6524;BME280;3295;38.928;-77.052;2023-03-04T04:44:31;58796.78;;;-143.16;100.00
6524;BME280;3295;38.928;-77.052;2023-03-04T04:47:00;58796.78;;;-143.16;100.00
6524;BME280;3295;38.928;-77.052;2023-03-04T04:49:28;58796.78;;;-143.16;100.00
6524;BME280;3295;38.928;-77.052;2023-03-04T04:51:56;58796.78;;;-143.16;100.00
6524;BME280;3295;38.928;-77.052;2023-03-04T04:54:24;58796.78;;;-143.16;100.00
6524;BME280;3295;38.928;-77.052;2023-03-04T04:56:52;58796.78;;;-143.16;100.00
6524;BME280;3295;38.928;-77.052;2023-03-04T04:59:20;58796.78;;;-143.16;100.00
6524;BME280;3295;38.928;-77.052;2023-03-04T05:01:48;58796.78;;;-143.16;100.00
6524;BME280;3295;38.928;-77.052;2023-03-04T05:04:18;58796.78;;;-143.16;100.00
6524;BME280;3295;38.928;-77.052;2023-03-04T05:06:46;58796.78;;;-143.16;100.00
6524;BME280;3295;38.928;-77.052;2023-03-04T05:09:14;58796.78;;;-143.16;100.00
6524;BME280;3295;38.928;-77.052;2023-03-04T05:11:42;58796.78;;;-143.16;100.00
6524;BME280;3295;38.928;-77.052;2023-03-04T05:14:10;58796.78;;;-143.16;100.00
6524;BME280;3295;38.928;-77.052;2023-03-04T05:16:38;58796.78;;;-143.16;100.00
6524;BME280;3295;38.928;-77.052;2023-03-04T05:19:06;58796.78;;;-143.16;100.00
6524;BME280;3295;38.928;-77.052;2023-03-04T05:21:36;58796.78;;;-143.16;100.00
6524;BME280;3295;38.928;-77.052;2023-03-04T05:24:05;58796.78;;;-143.16;100.00
6524;BME280;3295;38.928;-77.052;2023-03-04T05:26:33;58796.78;;;-143.16;100.00
6524;BME280;3295;38.928;-77.052;2023-03-04T05:29:01;58796.78;;;-143.16;100.00
6524;BME280;3295;38.928;-77.052;2023-03-04T05:31:29;58796.78;;;-143.16;100.00
6524;BME280;3295;38.928;-77.052;2023-03-04T05:33:57;58796.78;;;-143.16;100.00
6524;BME280;3295;38.928;-77.052;2023-03-04T05:36:25;58796.78;;;-143.16;100.00
6524;BME280;3295;38.928;-77.052;2023-03-04T05:38:55;58796.78;;;-143.16;100.00
6524;BME280;3295;38.928;-77.052;2023-03-04T05:41:23;58796.78;;;-143.16;100.00
6524;BME280;3295;38.928;-77.052;2023-03-04T05:43:51;58796.78;;;-143.16;100.00
6524;BME280;3295;38.928;-77.052;2023-03-04T05:46:19;58796.78;;;-143.16;100.00
6524;BME280;3295;38.928;-77.052;2023-03-04T05:48:51;58796.78;;;-143.16;100.00
6524;BME280;3295;38.928;-77.052;2023-03-04T05:51:20;58796.78;;;-143.16;100.00
6524;BME280;3295;38.928;-77.052;2023-03-04T05:53:49;58796.78;;;-143.16;100.00
6524;BME280;3295;38.928;-77.052;2023-03-04T05:56:19;58796.78;;;-143.16;100.00
6524;BME280;3295;38.928;-77.052;2023-03-04T05:58:47;58796.78;;;-143.16;100.00
6524;BME280;3295;38.928;-77.052;2023-03-04T06:01:15;58796.78;;;-143.16;100.00
6524;BME280;3295;38.928;-77.052;2023-03-04T06:03:43;58796.78;;;-143.16;100.00
6524;BME280;3295;38.928;-77.052;2023-03-04T06:06:13;58796.78;;;-143.16;100.00
6524;BME280;3295;38.928;-77.052;2023-03-04T06:08:41;58796.78;;;-143.16;100.00
6524;BME280;3295;38.928;-77.052;2023-03-04T06:11:09;58796.78;;;-143.16;100.00
6524;BME280;3295;38.928;-77.052;2023-03-04T06:13:38;58796.78;;;-143.16;100.00
6524;BME280;3295;38.928;-77.052;2023-03-04T06:16:07;58796.78;;;-143.16;100.00
6524;BME280;3295;38.928;-77.052;2023-03-04T06:18:35;58796.78;;;-143.16;100.00
6524;BME280;3295;38.928;-77.052;2023-03-04T06:21:03;58796.78;;;-143.16;100.00
6524;BME280;3295;38.928;-77.052;2023-03-04T06:23:31;58796.78;;;-143.16;100.00
6524;BME280;3295;38.928;-77.052;2023-03-04T06:25:59;58796.78;;;-143.16;100.00
6524;BME280;3295;38.928;-77.052;2023-03-04T06:28:27;58796.78;;;-143.16;100.00
6524;BME280;3295;38.928;-77.052;2023-03-04T06:30:57;58796.78;;;-143.16;100.00
6524;BME280;3295;38.928;-77.052;2023-03-04T06:33:25;58796.78;;;-143.16;100.00
6524;BME280;3295;38.928;-77.052;2023-03-04T06:35:56;58796.78;;;-143.16;100.00
6524;BME280;3295;38.928;-77.052;2023-03-04T06:38:24;58796.78;;;-143.16;100.00
6524;BME280;3295;38.928;-77.052;2023-03-04T06:40:53;58796.78;;;-143.16;100.00
6524;BME280;3295;38.928;-77.052;2023-03-04T06:43:21;58796.78;;;-143.16;100.00
6524;BME280;3295;38.928;-77.052;2023-03-04T06:45:49;58796.78;;;-143.16;100.00
6524;BME280;3295;38.928;-77.052;2023-03-04T06:48:18;58796.78;;;-143.16;100.00
6524;BME280;3295;38.928;-77.052;2023-03-04T06:50:46;58796.78;;;-143.16;100.00
6524;BME280;3295;38.928;-77.052;2023-03-04T06:53:14;58796.78;;;-143.16;100.00
6524;BME280;3295;38.928;-77.052;2023-03-04T06:55:42;58796.78;;;-143.16;100.00
6524;BME280;3295;38.928;-77.052;2023-03-04T06:58:10;58796.78;;;-143.16;100.00
6524;BME280;3295;38.928;-77.052;2023-03-04T07:00:38;58796.78;;;-143.16;100.00
6524;BME280;3295;38.928;-77.052;2023-03-04T07:03:06;58796.78;;;-143.16;100.00
6524;BME280;3295;38.928;-77.052;2023-03-04T07:05:35;58796.78;;;-143.16;100.00
6524;BME280;3295;38.928;-77.052;2023-03-04T07:08:03;58796.78;;;-143.16;100.00
6524;BME280;3295;38.928;-77.052;2023-03-04T07:10:32;58796.78;;;-143.16;100.00
6524;BME280;3295;38.928;-77.052;2023-03-04T07:13:00;58796.78;;;-143.16;100.00
6524;BME280;3295;38.928;-77.052;2023-03-04T07:15:28;58796.78;;;-143.16;100.00
6524;BME280;3295;38.928;-77.052;2023-03-04T07:17:56;58796.78;;;-143.16;100.00
6524;BME280;3295;38.928;-77.052;2023-03-04T07:20:24;58796.78;;;-143.16;100.00
6524;BME280;3295;38.928;-77.052;2023-03-04T07:22:53;58796.78;;;-143.16;100.00
6524;BME280;3295;38.928;-77.052;2023-03-04T07:25:21;58796.78;;;-143.16;100.00
6524;BME280;3295;38.928;-77.052;2023-03-04T07:27:49;58796.78;;;-143.16;100.00
6524;BME280;3295;38.928;-77.052;2023-03-04T07:30:17;58796.78;;;-143.16;100.00
6524;BME280;3295;38.928;-77.052;2023-03-04T07:32:45;58796.78;;;-143.16;100.00
6524;BME280;3295;38.928;-77.052;2023-03-04T07:35:13;58796.78;;;-143.16;100.00
6524;BME280;3295;38.928;-77.052;2023-03-04T07:37:41;58796.78;;;-143.16;100.00
6524;BME280;3295;38.928;-77.052;2023-03-04T07:40:11;58796.78;;;-143.16;100.00
6524;BME280;3295;38.928;-77.052;2023-03-04T07:42:39;58796.78;;;-143.16;100.00
6524;BME280;3295;38.928;-77.052;2023-03-04T07:45:08;58796.78;;;-143.16;100.00
6524;BME280;3295;38.928;-77.052;2023-03-04T07:47:37;58796.78;;;-143.16;100.00
6524;BME280;3295;38.928;-77.052;2023-03-04T07:50:07;58796.78;;;-143.16;100.00
6524;BME280;3295;38.928;-77.052;2023-03-04T07:52:37;58796.78;;;-143.16;100.00
6524;BME280;3295;38.928;-77.052;2023-03-04T07:55:06;58796.78;;;-143.16;100.00
6524;BME280;3295;38.928;-77.052;2023-03-04T07:57:37;58796.78;;;-143.16;100.00
6524;BME280;3295;38.928;-77.052;2023-03-04T08:00:06;58796.78;;;-143.16;100.00
6524;BME280;3295;38.928;-77.052;2023-03-04T08:02:34;58796.78;;;-143.16;100.00
6524;BME280;3295;38.928;-77.052;2023-03-04T08:05:03;58796.78;;;-143.16;100.00
6524;BME280;3295;38.928;-77.052;2023-03-04T08:07:30;58796.78;;;-143.16;100.00
6524;BME280;3295;38.928;-77.052;2023-03-04T08:09:58;58796.78;;;-143.16;100.00
6524;BME280;3295;38.928;-77.052;2023-03-04T08:12:26;58796.78;;;-143.16;100.00
6524;BME280;3295;38.928;-77.052;2023-03-04T08:14:56;58796.78;;;-143.16;100.00
6524;BME280;3295;38.928;-77.052;2023-03-04T08:17:24;58796.78;;;-143.16;100.00
6524;BME280;3295;38.928;-77.052;2023-03-04T08:19:54;58796.78;;;-143.16;100.00
6524;BME280;3295;38.928;-77.052;2023-03-04T08:25:45;58796.78;;;-143.16;100.00
6524;BME280;3295;38.928;-77.052;2023-03-04T08:28:14;58796.78;;;-143.16;100.00
6524;BME280;3295;38.928;-77.052;2023-03-04T08:30:43;58796.78;;;-143.16;100.00
6524;BME280;3295;38.928;-77.052;2023-03-04T08:33:11;58796.78;;;-143.16;100.00
6524;BME280;3295;38.928;-77.052;2023-03-04T08:35:39;58796.78;;;-143.16;100.00
6524;BME280;3295;38.928;-77.052;2023-03-04T08:38:07;58796.78;;;-143.16;100.00
6524;BME280;3295;38.928;-77.052;2023-03-04T08:40:35;58796.78;;;-143.16;100.00
6524;BME280;3295;38.928;-77.052;2023-03-04T08:43:03;58796.78;;;-143.16;100.00
6524;BME280;3295;38.928;-77.052;2023-03-04T08:45:31;58796.78;;;-143.16;100.00
6524;BME280;3295;38.928;-77.052;2023-03-04T08:48:01;58796.78;;;-143.16;100.00
6524;BME280;3295;38.928;-77.052;2023-03-04T08:50:29;58796.78;;;-143.16;100.00
6524;BME280;3295;38.928;-77.052;2023-03-04T08:52:58;58796.78;;;-143.16;100.00
6524;BME280;3295;38.928;-77.052;2023-03-04T08:55:26;58796.78;;;-143.16;100.00
6524;BME280;3295;38.928;-77.052;2023-03-04T08:57:54;58796.78;;;-143.16;100.00
6524;BME280;3295;38.928;-77.052;2023-03-04T09:00:22;58796.78;;;-143.16;100.00
6524;BME280;3295;38.928;-77.052;2023-03-04T09:02:50;58796.78;;;-143.16;100.00
6524;BME280;3295;38.928;-77.052;2023-03-04T09:05:19;58796.78;;;-143.16;100.00
6524;BME280;3295;38.928;-77.052;2023-03-04T09:07:47;58796.78;;;-143.16;100.00
6524;BME280;3295;38.928;-77.052;2023-03-04T09:10:16;58796.78;;;-143.16;100.00
6524;BME280;3295;38.928;-77.052;2023-03-04T09:12:43;58796.78;;;-143.16;100.00
6524;BME280;3295;38.928;-77.052;2023-03-04T09:15:12;58796.78;;;-143.16;100.00
6524;BME280;3295;38.928;-77.052;2023-03-04T09:17:40;58796.78;;;-143.16;100.00
6524;BME280;3295;38.928;-77.052;2023-03-04T09:20:09;58796.78;;;-143.16;100.00
6524;BME280;3295;38.928;-77.052;2023-03-04T09:22:40;58796.78;;;-143.16;100.00
6524;BME280;3295;38.928;-77.052;2023-03-04T09:25:10;58796.78;;;-143.16;100.00
6524;BME280;3295;38.928;-77.052;2023-03-04T09:27:40;58796.78;;;-143.16;100.00
6524;BME280;3295;38.928;-77.052;2023-03-04T09:30:09;58796.78;;;-143.16;100.00
6524;BME280;3295;38.928;-77.052;2023-03-04T09:32:38;58796.78;;;-143.16;100.00
6524;BME280;3295;38.928;-77.052;2023-03-04T09:35:07;58796.78;;;-143.16;100.00
6524;BME280;3295;38.928;-77.052;2023-03-04T09:37:35;58796.78;;;-143.16;100.00
6524;BME280;3295;38.928;-77.052;2023-03-04T09:40:06;58796.78;;;-143.16;100.00
6524;BME280;3295;38.928;-77.052;2023-03-04T09:42:36;58796.78;;;-143.16;100.00
6524;BME280;3295;38.928;-77.052;2023-03-04T09:45:07;58796.78;;;-143.16;100.00
6524;BME280;3295;38.928;-77.052;2023-03-04T09:47:36;58796.78;;;-143.16;100.00
6524;BME280;3295;38.928;-77.052;2023-03-04T09:50:07;58796.78;;;-143.16;100.00
6524;BME280;3295;38.928;-77.052;2023-03-04T09:52:48;58796.78;;;-143.16;100.00
6524;BME280;3295;38.928;-77.052;2023-03-04T09:55:23;58796.78;;;-143.16;100.00
6524;BME280;3295;38.928;-77.052;2023-03-04T09:58:02;58796.78;;;-143.16;100.00
6524;BME280;3295;38.928;-77.052;2023-03-04T10:00:35;58796.78;;;-143.16;100.00
6524;BME280;3295;38.928;-77.052;2023-03-04T10:03:11;58796.78;;;-143.16;100.00
6524;BME280;3295;38.928;-77.052;2023-03-04T10:05:45;58796.78;;;-143.16;100.00
6524;BME280;3295;38.928;-77.052;2023-03-04T10:08:35;58796.78;;;-143.16;100.00
6524;BME280;3295;38.928;-77.052;2023-03-04T10:11:13;58796.78;;;-143.16;100.00
6524;BME280;3295;38.928;-77.052;2023-03-04T10:13:50;58796.78;;;-143.16;100.00
6524;BME280;3295;38.928;-77.052;2023-03-04T10:16:23;58796.78;;;-143.16;100.00
6524;BME280;3295;38.928;-77.052;2023-03-04T10:18:55;58796.78;;;-143.16;100.00
6524;BME280;3295;38.928;-77.052;2023-03-04T10:21:29;58796.78;;;-143.16;100.00
6524;BME280;3295;38.928;-77.052;2023-03-04T10:23:59;58796.78;;;-143.16;100.00
6524;BME280;3295;38.928;-77.052;2023-03-04T10:26:33;58796.78;;;-143.16;100.00
6524;BME280;3295;38.928;-77.052;2023-03-04T10:29:00;58796.78;;;-143.16;100.00
6524;BME280;3295;38.928;-77.052;2023-03-04T10:31:34;58796.78;;;-143.16;100.00
6524;BME280;3295;38.928;-77.052;2023-03-04T10:34:02;58796.78;;;-143.16;100.00
6524;BME280;3295;38.928;-77.052;2023-03-04T10:36:38;58796.78;;;-143.16;100.00
6524;BME280;3295;38.928;-77.052;2023-03-04T10:39:11;58796.78;;;-143.16;100.00
6524;BME280;3295;38.928;-77.052;2023-03-04T10:41:44;58796.78;;;-143.16;100.00
6524;BME280;3295;38.928;-77.052;2023-03-04T10:44:15;58796.78;;;-143.16;100.00
6524;BME280;3295;38.928;-77.052;2023-03-04T10:46:46;58796.78;;;-143.16;100.00
6524;BME280;3295;38.928;-77.052;2023-03-04T10:49:15;58796.78;;;-143.16;100.00
6524;BME280;3295;38.928;-77.052;2023-03-04T10:51:44;58796.78;;;-143.16;100.00
6524;BME280;3295;38.928;-77.052;2023-03-04T10:54:22;58796.78;;;-143.16;100.00
6524;BME280;3295;38.928;-77.052;2023-03-04T10:57:00;58796.78;;;-143.16;100.00
6524;BME280;3295;38.928;-77.052;2023-03-04T10:59:33;58796.78;;;-143.16;100.00
6524;BME280;3295;38.928;-77.052;2023-03-04T11:02:14;58796.78;;;-143.16;100.00
6524;BME280;3295;38.928;-77.052;2023-03-04T11:04:42;58796.78;;;-143.16;100.00
6524;BME280;3295;38.928;-77.052;2023-03-04T11:07:15;58796.78;;;-143.16;100.00
6524;BME280;3295;38.928;-77.052;2023-03-04T11:09:44;58796.78;;;-143.16;100.00
6524;BME280;3295;38.928;-77.052;2023-03-04T11:12:15;58796.78;;;-143.16;100.00
6524;BME280;3295;38.928;-77.052;2023-03-04T11:14:46;58796.78;;;-143.16;100.00
6524;BME280;3295;38.928;-77.052;2023-03-04T11:17:19;58796.78;;;-143.16;100.00
6524;BME280;3295;38.928;-77.052;2023-03-04T11:19:49;58796.78;;;-143.16;100.00
6524;BME280;3295;38.928;-77.052;2023-03-04T11:22:20;58796.78;;;-143.16;100.00
6524;BME280;3295;38.928;-77.052;2023-03-04T11:24:58;58796.78;;;-143.16;100.00
6524;BME280;3295;38.928;-77.052;2023-03-04T11:27:37;58796.78;;;-143.16;100.00
6524;BME280;3295;38.928;-77.052;2023-03-04T11:30:24;58796.78;;;-143.16;100.00
6524;BME280;3295;38.928;-77.052;2023-03-04T11:32:59;58796.78;;;-143.16;100.00
6524;BME280;3295;38.928;-77.052;2023-03-04T11:35:33;58796.78;;;-143.16;100.00
6524;BME280;3295;38.928;-77.052;2023-03-04T11:38:07;58796.78;;;-143.16;100.00
6524;BME280;3295;38.928;-77.052;2023-03-04T11:40:41;58796.78;;;-143.16;100.00
6524;BME280;3295;38.928;-77.052;2023-03-04T11:43:15;58796.78;;;-143.16;100.00
6524;BME280;3295;38.928;-77.052;2023-03-04T11:49:06;58796.78;;;-143.16;100.00
6524;BME280;3295;38.928;-77.052;2023-03-04T11:51:39;58796.78;;;-143.16;100.00
6524;BME280;3295;38.928;-77.052;2023-03-04T11:54:16;58796.78;;;-143.16;100.00
6524;BME280;3295;38.928;-77.052;2023-03-04T11:56:52;58796.78;;;-143.16;100.00
6524;BME280;3295;38.928;-77.052;2023-03-04T11:59:33;58796.78;;;-143.16;100.00
6524;BME280;3295;38.928;-77.052;2023-03-04T12:02:14;58796.78;;;-143.16;100.00
6524;BME280;3295;38.928;-77.052;2023-03-04T12:05:16;58796.78;;;-143.16;100.00
6524;BME280;3295;38.928;-77.052;2023-03-04T12:10:44;58796.78;;;-143.16;100.00
6524;BME280;3295;38.928;-77.052;2023-03-04T12:13:33;58796.78;;;-143.16;100.00
6524;BME280;3295;38.928;-77.052;2023-03-04T12:16:16;58796.78;;;-143.16;100.00
6524;BME280;3295;38.928;-77.052;2023-03-04T12:19:00;58796.78;;;-143.16;100.00
6524;BME280;3295;38.928;-77.052;2023-03-04T12:24:37;58796.78;;;-143.16;100.00
6524;BME280;3295;38.928;-77.052;2023-03-04T12:27:12;58796.78;;;-143.16;100.00
6524;BME280;3295;38.928;-77.052;2023-03-04T12:29:49;58796.78;;;-143.16;100.00
6524;BME280;3295;38.928;-77.052;2023-03-04T12:32:29;58796.78;;;-143.16;100.00
6524;BME280;3295;38.928;-77.052;2023-03-04T12:35:13;58796.78;;;-143.16;100.00
6524;BME280;3295;38.928;-77.052;2023-03-04T12:38:09;58796.78;;;-143.16;100.00
6524;BME280;3295;38.928;-77.052;2023-03-04T12:40:47;58796.78;;;-143.16;100.00
6524;BME280;3295;38.928;-77.052;2023-03-04T12:43:35;58796.78;;;-143.16;100.00
6524;BME280;3295;38.928;-77.052;2023-03-04T12:46:17;58796.78;;;-143.16;100.00
6524;BME280;3295;38.928;-77.052;2023-03-04T12:48:56;58796.78;;;-143.16;100.00
6524;BME280;3295;38.928;-77.052;2023-03-04T12:51:33;58796.78;;;-143.16;100.00
6524;BME280;3295;38.928;-77.052;2023-03-04T12:54:12;58796.78;;;-143.16;100.00
6524;BME280;3295;38.928;-77.052;2023-03-04T12:56:45;58796.78;;;-143.16;100.00
6524;BME280;3295;38.928;-77.052;2023-03-04T12:59:19;58796.78;;;-143.16;100.00
6524;BME280;3295;38.928;-77.052;2023-03-04T13:01:55;58796.78;;;-143.16;100.00
6524;BME280;3295;38.928;-77.052;2023-03-04T13:04:34;58796.78;;;-143.16;100.00
6524;BME280;3295;38.928;-77.052;2023-03-04T13:07:10;58796.78;;;-143.16;100.00